createdAt,value
2022-08-30T00:00:54.778Z,15.70
2022-08-30T00:01:56.398Z,15.60
2022-08-30T00:02:59.254Z,15.60
2022-08-30T00:04:02.686Z,15.60
2022-08-30T00:05:04.877Z,15.50
2022-08-30T00:06:07.962Z,15.50
2022-08-30T00:07:09.645Z,15.50
2022-08-30T00:08:12.278Z,15.50
2022-08-30T00:09:15.541Z,15.50
2022-08-30T00:10:17.325Z,15.50
2022-08-30T00:11:22.816Z,15.50
2022-08-30T00:12:24.562Z,15.50
2022-08-30T00:13:26.303Z,15.50
2022-08-30T00:14:27.945Z,15.50
2022-08-30T00:15:30.130Z,15.50
2022-08-30T00:16:31.785Z,15.50
2022-08-30T00:17:33.847Z,15.50
2022-08-30T00:18:36.602Z,15.50
2022-08-30T00:19:38.309Z,15.50
2022-08-30T00:20:39.949Z,15.50
2022-08-30T00:21:41.542Z,15.50
2022-08-30T00:22:43.507Z,15.50
2022-08-30T00:23:45.569Z,15.40
2022-08-30T00:24:47.261Z,15.40
2022-08-30T00:25:49.514Z,15.20
2022-08-30T00:26:51.094Z,15.20
2022-08-30T00:27:53.310Z,15.20
2022-08-30T00:28:55.136Z,15.20
2022-08-30T00:29:57.022Z,15.20
2022-08-30T00:30:58.670Z,15.20
2022-08-30T00:32:02.376Z,15.20
2022-08-30T00:33:04.862Z,15.30
2022-08-30T00:34:07.259Z,15.30
2022-08-30T00:35:11.159Z,15.30
2022-08-30T00:36:12.743Z,15.30
2022-08-30T00:37:15.137Z,15.40
2022-08-30T00:38:17.318Z,15.30
2022-08-30T00:39:18.899Z,15.30
2022-08-30T00:40:24.838Z,15.30
2022-08-30T00:41:29.013Z,15.40
2022-08-30T00:42:30.884Z,15.40
2022-08-30T00:43:36.807Z,15.40
2022-08-30T00:44:39.377Z,15.40
2022-08-30T00:45:41.202Z,15.30
2022-08-30T00:46:43.093Z,15.30
2022-08-30T00:47:45.506Z,15.30
2022-08-30T00:48:49.525Z,15.30
2022-08-30T00:49:56.330Z,15.20
2022-08-30T00:51:05.050Z,15.20
2022-08-30T00:52:07.371Z,15.10
2022-08-30T00:53:14.389Z,15.20
2022-08-30T00:54:16.852Z,15.20
2022-08-30T00:55:20.666Z,15.20
2022-08-30T00:56:25.123Z,15.20
2022-08-30T00:57:26.743Z,15.20
2022-08-30T00:58:33.844Z,15.20
2022-08-30T00:59:35.578Z,15.30
2022-08-30T01:00:37.290Z,15.20
2022-08-30T01:01:39.248Z,15.20
2022-08-30T01:02:41.325Z,15.20
2022-08-30T01:03:43.860Z,15.20
2022-08-30T01:04:45.970Z,15.20
2022-08-30T01:05:50.129Z,15.20
2022-08-30T01:06:52.768Z,15.20
2022-08-30T01:07:54.341Z,15.20
2022-08-30T01:08:56.851Z,15.20
2022-08-30T01:09:58.447Z,15.20
2022-08-30T01:11:01.289Z,15.20
2022-08-30T01:12:05.661Z,15.20
2022-08-30T01:13:09.423Z,15.20
2022-08-30T01:14:12.526Z,15.20
2022-08-30T01:15:14.965Z,15.30
2022-08-30T01:16:16.701Z,15.20
2022-08-30T01:17:19.487Z,15.20
2022-08-30T01:18:25.260Z,15.20
2022-08-30T01:19:58.484Z,15.10
2022-08-30T01:21:16.402Z,15.20
2022-08-30T01:22:26.810Z,15.10
2022-08-30T01:23:29.494Z,15.20
2022-08-30T01:24:33.330Z,15.20
2022-08-30T01:25:36.858Z,15.20
2022-08-30T01:26:39.722Z,15.20
2022-08-30T01:27:45.653Z,15.20
2022-08-30T01:28:50.226Z,15.20
2022-08-30T01:29:52.491Z,15.10
2022-08-30T01:30:54.259Z,15.10
2022-08-30T01:31:56.243Z,15.10
2022-08-30T01:33:01.733Z,15.00
2022-08-30T01:34:05.227Z,15.00
2022-08-30T01:35:07.257Z,15.10
2022-08-30T01:36:12.354Z,15.10
2022-08-30T01:37:17.721Z,15.00
2022-08-30T01:38:22.334Z,15.00
2022-08-30T01:39:24.094Z,15.00
2022-08-30T01:40:25.775Z,14.90
2022-08-30T01:41:31.570Z,14.90
2022-08-30T01:42:33.490Z,14.90
2022-08-30T01:43:35.077Z,14.80
2022-08-30T01:44:37.437Z,14.80
2022-08-30T01:45:39.230Z,14.80
2022-08-30T01:46:45.555Z,14.80
2022-08-30T01:47:47.187Z,14.90
2022-08-30T01:48:52.979Z,14.90
2022-08-30T01:49:55.783Z,14.90
2022-08-30T01:50:57.539Z,14.90
2022-08-30T01:52:00.884Z,14.80
2022-08-30T01:53:04.422Z,14.70
2022-08-30T01:54:06.595Z,14.80
2022-08-30T01:55:08.923Z,14.70
2022-08-30T01:56:12.034Z,14.60
2022-08-30T01:57:17.430Z,14.60
2022-08-30T01:58:19.034Z,14.60
2022-08-30T01:59:20.715Z,14.60
2022-08-30T02:00:22.389Z,14.60
2022-08-30T02:01:27.986Z,14.60
2022-08-30T02:02:29.741Z,14.60
2022-08-30T02:03:35.075Z,14.60
2022-08-30T02:04:36.798Z,14.50
2022-08-30T02:05:38.511Z,14.50
2022-08-30T02:06:41.151Z,14.40
2022-08-30T02:07:42.945Z,14.30
2022-08-30T02:08:44.958Z,14.20
2022-08-30T02:09:46.946Z,14.20
2022-08-30T02:10:48.542Z,14.20
2022-08-30T02:11:50.300Z,14.20
2022-08-30T02:12:51.983Z,14.20
2022-08-30T02:13:53.780Z,14.20
2022-08-30T02:14:55.659Z,14.20
2022-08-30T02:15:57.271Z,14.20
2022-08-30T02:16:58.980Z,14.20
2022-08-30T02:18:01.277Z,14.10
2022-08-30T02:19:03.782Z,14.10
2022-08-30T02:20:06.983Z,14.20
2022-08-30T02:21:09.801Z,14.10
2022-08-30T02:22:11.885Z,14.10
2022-08-30T02:23:13.582Z,14.20
2022-08-30T02:24:15.447Z,14.20
2022-08-30T02:25:20.846Z,14.20
2022-08-30T02:26:23.151Z,14.20
2022-08-30T02:27:26.097Z,14.20
2022-08-30T02:28:27.976Z,14.30
2022-08-30T02:29:29.796Z,14.40
2022-08-30T02:30:31.798Z,14.50
2022-08-30T02:31:33.410Z,14.60
2022-08-30T02:32:34.977Z,14.60
2022-08-30T02:33:36.709Z,14.60
2022-08-30T02:34:42.041Z,14.70
2022-08-30T02:35:43.801Z,14.70
2022-08-30T02:36:46.090Z,14.80
2022-08-30T02:37:47.718Z,14.80
2022-08-30T02:38:50.981Z,14.80
2022-08-30T02:39:52.597Z,14.80
2022-08-30T02:40:54.471Z,14.80
2022-08-30T02:41:56.066Z,14.90
2022-08-30T02:42:57.702Z,14.90
2022-08-30T02:44:00.526Z,14.90
2022-08-30T02:45:02.470Z,15.00
2022-08-30T02:46:04.762Z,15.00
2022-08-30T02:47:06.469Z,15.00
2022-08-30T02:48:08.651Z,15.00
2022-08-30T02:49:32.517Z,15.00
2022-08-30T02:50:32.218Z,15.00
2022-08-30T02:51:34.076Z,15.00
2022-08-30T02:52:37.044Z,14.90
2022-08-30T02:53:40.620Z,15.00
2022-08-30T02:54:42.227Z,15.00
2022-08-30T02:55:44.350Z,14.90
2022-08-30T02:56:47.889Z,14.90
2022-08-30T02:57:49.549Z,14.90
2022-08-30T02:58:51.125Z,14.90
2022-08-30T02:59:53.453Z,15.00
2022-08-30T03:00:55.324Z,15.00
2022-08-30T03:01:56.998Z,14.90
2022-08-30T03:02:58.897Z,14.90
2022-08-30T03:04:00.710Z,14.90
2022-08-30T03:05:03.170Z,14.90
2022-08-30T03:06:05.108Z,14.90
2022-08-30T03:07:08.217Z,14.80
2022-08-30T03:08:09.887Z,14.80
2022-08-30T03:09:11.558Z,14.80
2022-08-30T03:10:15.207Z,14.80
2022-08-30T03:11:16.758Z,14.80
2022-08-30T03:12:18.586Z,14.80
2022-08-30T03:13:20.919Z,14.70
2022-08-30T03:14:22.772Z,14.70
2022-08-30T03:15:25.430Z,14.70
2022-08-30T03:16:27.081Z,14.70
2022-08-30T03:17:29.799Z,14.50
2022-08-30T03:18:31.377Z,14.50
2022-08-30T03:19:34.185Z,14.50
2022-08-30T03:20:35.785Z,14.50
2022-08-30T03:21:37.459Z,14.50
2022-08-30T03:22:39.706Z,14.50
2022-08-30T03:23:42.434Z,14.60
2022-08-30T03:24:45.771Z,14.60
2022-08-30T03:25:47.350Z,14.60
2022-08-30T03:26:48.928Z,14.60
2022-08-30T03:27:50.873Z,14.60
2022-08-30T03:28:53.182Z,14.50
2022-08-30T03:29:55.747Z,14.50
2022-08-30T03:30:57.351Z,14.50
2022-08-30T03:31:59.062Z,14.40
2022-08-30T03:33:01.631Z,14.40
2022-08-30T03:34:05.322Z,14.40
2022-08-30T03:35:07.946Z,14.30
2022-08-30T03:36:11.995Z,14.30
2022-08-30T03:37:13.776Z,14.30
2022-08-30T03:38:15.804Z,14.30
2022-08-30T03:39:17.372Z,14.30
2022-08-30T03:40:20.593Z,14.30
2022-08-30T03:41:22.194Z,14.20
2022-08-30T03:42:24.816Z,14.20
2022-08-30T03:43:26.556Z,14.20
2022-08-30T03:44:28.193Z,14.20
2022-08-30T03:45:29.901Z,14.20
2022-08-30T03:46:34.491Z,14.20
2022-08-30T03:47:38.448Z,14.20
2022-08-30T03:48:43.977Z,14.20
2022-08-30T03:49:46.146Z,14.20
2022-08-30T03:50:47.790Z,14.20
2022-08-30T03:51:49.536Z,14.20
2022-08-30T03:52:51.209Z,14.10
2022-08-30T03:53:52.962Z,14.10
2022-08-30T03:54:54.562Z,14.10
2022-08-30T03:55:57.247Z,14.10
2022-08-30T03:56:59.080Z,14.10
2022-08-30T03:58:00.709Z,14.10
2022-08-30T03:59:02.519Z,14.10
2022-08-30T04:00:05.581Z,14.20
2022-08-30T04:01:07.891Z,14.20
2022-08-30T04:02:09.599Z,14.10
2022-08-30T04:03:11.210Z,14.10
2022-08-30T04:04:16.299Z,14.10
2022-08-30T04:05:20.869Z,14.10
2022-08-30T04:06:23.057Z,14.20
2022-08-30T04:07:24.648Z,14.20
2022-08-30T04:08:26.620Z,14.10
2022-08-30T04:09:28.291Z,14.10
2022-08-30T04:10:29.869Z,14.10
2022-08-30T04:11:32.034Z,14.20
2022-08-30T04:12:33.650Z,14.20
2022-08-30T04:13:35.242Z,14.20
2022-08-30T04:14:36.827Z,14.10
2022-08-30T04:15:38.436Z,14.10
2022-08-30T04:16:40.275Z,14.10
2022-08-30T04:17:42.205Z,14.00
2022-08-30T04:18:43.773Z,14.00
2022-08-30T04:19:45.418Z,14.00
2022-08-30T04:20:47.446Z,14.00
2022-08-30T04:21:49.023Z,13.90
2022-08-30T04:22:50.619Z,13.90
2022-08-30T04:23:52.322Z,13.90
2022-08-30T04:24:54.057Z,13.80
2022-08-30T04:25:56.375Z,13.80
2022-08-30T04:26:57.949Z,13.80
2022-08-30T04:27:59.597Z,13.90
2022-08-30T04:29:01.198Z,13.80
2022-08-30T04:30:03.285Z,13.90
2022-08-30T04:31:12.050Z,13.90
2022-08-30T04:32:14.235Z,13.90
2022-08-30T04:33:16.668Z,13.90
2022-08-30T04:34:18.357Z,13.90
2022-08-30T04:35:20.061Z,13.90
2022-08-30T04:36:22.164Z,14.00
2022-08-30T04:37:23.797Z,13.90
2022-08-30T04:38:29.891Z,13.90
2022-08-30T04:39:32.022Z,13.80
2022-08-30T04:40:33.669Z,13.80
2022-08-30T04:41:40.645Z,13.80
2022-08-30T04:42:44.026Z,13.80
2022-08-30T04:43:48.287Z,13.80
2022-08-30T04:44:50.882Z,13.90
2022-08-30T04:45:53.863Z,13.90
2022-08-30T04:46:55.450Z,13.90
2022-08-30T04:47:57.302Z,14.00
2022-08-30T04:48:58.930Z,14.00
2022-08-30T04:50:00.621Z,14.00
2022-08-30T04:51:11.472Z,14.10
2022-08-30T04:52:13.092Z,14.10
2022-08-30T04:53:15.849Z,14.10
2022-08-30T04:54:17.762Z,14.10
2022-08-30T04:55:20.505Z,14.20
2022-08-30T04:56:24.253Z,14.20
2022-08-30T04:57:27.165Z,14.30
2022-08-30T04:58:28.727Z,14.20
2022-08-30T04:59:30.344Z,14.20
2022-08-30T05:00:32.560Z,14.20
2022-08-30T05:01:44.926Z,14.20
2022-08-30T05:02:47.762Z,14.20
2022-08-30T05:03:50.382Z,14.20
2022-08-30T05:05:24.107Z,14.20
2022-08-30T05:06:28.112Z,14.20
2022-08-30T05:07:31.278Z,14.20
2022-08-30T05:08:32.892Z,14.20
2022-08-30T05:09:34.496Z,14.20
2022-08-30T05:10:45.270Z,14.30
2022-08-30T05:11:47.066Z,14.30
2022-08-30T05:12:48.657Z,14.30
2022-08-30T05:13:50.529Z,14.30
2022-08-30T05:14:52.312Z,14.30
2022-08-30T05:15:53.889Z,14.30
2022-08-30T05:16:56.129Z,14.30
2022-08-30T05:17:57.998Z,14.30
2022-08-30T05:19:00.144Z,14.30
2022-08-30T05:20:02.475Z,14.30
2022-08-30T05:21:13.214Z,14.30
2022-08-30T05:22:14.886Z,14.30
2022-08-30T05:23:16.885Z,14.20
2022-08-30T05:24:18.851Z,14.30
2022-08-30T05:25:26.349Z,14.30
2022-08-30T05:26:31.585Z,14.30
2022-08-30T05:27:33.430Z,14.40
2022-08-30T05:28:38.890Z,14.40
2022-08-30T05:29:40.455Z,14.50
2022-08-30T05:30:42.275Z,14.60
2022-08-30T05:31:44.813Z,14.60
2022-08-30T05:32:46.606Z,14.60
2022-08-30T05:33:49.839Z,14.70
2022-08-30T05:34:51.743Z,14.70
2022-08-30T05:35:54.517Z,14.70
2022-08-30T05:36:56.405Z,14.80
2022-08-30T05:37:58.063Z,14.80
2022-08-30T05:39:00.577Z,14.90
2022-08-30T05:40:05.555Z,14.90
2022-08-30T05:41:12.981Z,14.90
2022-08-30T05:42:16.870Z,14.90
2022-08-30T05:43:18.578Z,14.90
2022-08-30T05:44:22.971Z,14.90
2022-08-30T05:45:27.286Z,14.90
2022-08-30T05:47:39.717Z,14.70
2022-08-30T05:48:41.340Z,14.70
2022-08-30T05:49:43.091Z,14.70
2022-08-30T05:50:44.651Z,14.70
2022-08-30T05:51:46.256Z,14.70
2022-08-30T05:52:47.827Z,14.60
2022-08-30T05:53:51.793Z,14.70
2022-08-30T05:54:55.824Z,14.70
2022-08-30T05:55:57.784Z,14.80
2022-08-30T05:56:59.829Z,14.90
2022-08-30T05:58:01.389Z,14.90
2022-08-30T05:59:06.825Z,15.00
2022-08-30T06:00:13.551Z,15.00
2022-08-30T06:01:42.714Z,15.00
2022-08-30T06:02:44.716Z,15.10
2022-08-30T06:03:46.567Z,15.10
2022-08-30T06:04:48.188Z,15.20
2022-08-30T06:05:49.854Z,15.20
2022-08-30T06:06:51.807Z,15.20
2022-08-30T06:07:53.372Z,15.30
2022-08-30T06:08:55.579Z,15.30
2022-08-30T06:09:57.191Z,15.30
2022-08-30T06:10:58.910Z,15.30
2022-08-30T06:12:00.486Z,15.30
2022-08-30T06:13:02.105Z,15.40
2022-08-30T06:14:04.791Z,15.40
2022-08-30T06:15:07.196Z,15.50
2022-08-30T06:16:11.951Z,15.60
2022-08-30T06:17:13.630Z,15.60
2022-08-30T06:18:15.469Z,15.70
2022-08-30T06:19:18.204Z,15.70
2022-08-30T06:20:20.325Z,15.70
2022-08-30T06:21:25.917Z,15.70
2022-08-30T06:22:27.495Z,15.50
2022-08-30T06:23:29.562Z,15.30
2022-08-30T06:24:55.947Z,15.30
2022-08-30T06:25:52.857Z,15.30
2022-08-30T06:26:54.475Z,15.30
2022-08-30T06:27:56.679Z,15.40
2022-08-30T06:28:58.980Z,15.40
2022-08-30T06:30:00.559Z,15.50
2022-08-30T06:31:05.421Z,15.50
2022-08-30T06:32:07.087Z,15.50
2022-08-30T06:33:09.773Z,15.40
2022-08-30T06:34:11.494Z,15.40
2022-08-30T06:35:13.076Z,15.40
2022-08-30T06:36:24.168Z,15.30
2022-08-30T06:37:30.038Z,15.20
2022-08-30T06:38:31.862Z,15.10
2022-08-30T06:39:33.449Z,15.10
2022-08-30T06:40:36.621Z,15.20
2022-08-30T06:41:40.251Z,15.30
2022-08-30T06:42:42.018Z,15.40
2022-08-30T06:43:48.671Z,15.50
2022-08-30T06:44:50.924Z,15.40
2022-08-30T06:45:53.130Z,15.50
2022-08-30T06:46:54.877Z,15.50
2022-08-30T06:49:07.433Z,15.70
2022-08-30T06:50:12.082Z,15.70
2022-08-30T06:51:14.745Z,15.70
2022-08-30T06:52:17.034Z,15.70
2022-08-30T06:53:20.934Z,15.70
2022-08-30T06:54:22.879Z,15.80
2022-08-30T06:55:24.566Z,15.80
2022-08-30T06:56:27.645Z,15.70
2022-08-30T06:57:29.370Z,15.70
2022-08-30T06:58:32.316Z,15.70
2022-08-30T06:59:33.982Z,15.70
2022-08-30T07:00:35.576Z,15.70
2022-08-30T07:01:38.386Z,15.80
2022-08-30T07:02:41.092Z,15.80
2022-08-30T07:03:43.057Z,15.70
2022-08-30T07:04:44.784Z,15.50
2022-08-30T07:05:48.523Z,15.60
2022-08-30T07:06:50.243Z,15.60
2022-08-30T07:07:54.620Z,15.50
2022-08-30T07:08:56.691Z,15.50
2022-08-30T07:09:58.302Z,15.50
2022-08-30T07:10:59.933Z,15.60
2022-08-30T07:12:03.603Z,15.60
2022-08-30T07:13:05.272Z,15.60
2022-08-30T07:14:07.683Z,15.70
2022-08-30T07:15:09.775Z,15.70
2022-08-30T07:16:13.437Z,15.80
2022-08-30T07:17:34.839Z,15.90
2022-08-30T07:18:51.820Z,15.90
2022-08-30T07:19:54.198Z,16.00
2022-08-30T07:20:56.385Z,16.00
2022-08-30T07:21:57.947Z,16.00
2022-08-30T07:22:59.581Z,16.10
2022-08-30T07:24:01.831Z,16.00
2022-08-30T07:25:03.807Z,16.00
2022-08-30T07:26:10.391Z,16.10
2022-08-30T07:27:12.077Z,16.00
2022-08-30T07:28:13.837Z,16.10
2022-08-30T07:29:17.701Z,16.10
2022-08-30T07:30:19.371Z,16.20
2022-08-30T07:31:21.626Z,16.20
2022-08-30T07:32:23.202Z,16.00
2022-08-30T07:33:24.810Z,15.90
2022-08-30T07:34:27.532Z,15.90
2022-08-30T07:35:29.328Z,16.00
2022-08-30T07:36:31.089Z,16.10
2022-08-30T07:37:32.746Z,16.20
2022-08-30T07:38:34.591Z,16.30
2022-08-30T07:39:41.750Z,16.20
2022-08-30T07:40:47.692Z,16.30
2022-08-30T07:41:50.715Z,16.30
2022-08-30T07:42:52.515Z,16.40
2022-08-30T07:43:54.500Z,16.50
2022-08-30T07:44:56.928Z,16.60
2022-08-30T07:46:04.514Z,16.60
2022-08-30T07:47:06.173Z,16.40
2022-08-30T07:48:08.293Z,16.40
2022-08-30T07:49:11.782Z,16.50
2022-08-30T07:50:13.826Z,16.50
2022-08-30T07:51:20.145Z,16.50
2022-08-30T07:52:21.703Z,16.60
2022-08-30T07:53:23.581Z,16.60
2022-08-30T07:54:25.183Z,16.60
2022-08-30T07:55:26.801Z,16.70
2022-08-30T07:56:28.494Z,16.70
2022-08-30T07:57:35.650Z,16.70
2022-08-30T07:58:37.964Z,16.70
2022-08-30T07:59:39.526Z,16.70
2022-08-30T08:00:41.155Z,16.70
2022-08-30T08:01:44.119Z,16.60
2022-08-30T08:02:45.901Z,16.70
2022-08-30T08:03:48.050Z,16.80
2022-08-30T08:04:49.635Z,16.70
2022-08-30T08:05:53.059Z,16.70
2022-08-30T08:06:55.186Z,16.70
2022-08-30T08:07:56.989Z,16.80
2022-08-30T08:09:02.172Z,16.80
2022-08-30T08:10:05.047Z,16.90
2022-08-30T08:11:19.195Z,16.90
2022-08-30T08:12:20.807Z,16.90
2022-08-30T08:13:23.657Z,16.90
2022-08-30T08:14:29.734Z,17.00
2022-08-30T08:15:31.631Z,17.00
2022-08-30T08:16:35.041Z,17.10
2022-08-30T08:17:36.629Z,17.10
2022-08-30T08:18:38.320Z,17.20
2022-08-30T08:19:39.917Z,17.10
2022-08-30T08:20:41.804Z,17.10
2022-08-30T08:21:43.373Z,17.20
2022-08-30T08:22:45.013Z,17.10
2022-08-30T08:23:46.920Z,17.00
2022-08-30T08:24:49.526Z,17.00
2022-08-30T08:25:51.219Z,17.00
2022-08-30T08:26:53.042Z,17.10
2022-08-30T08:27:54.694Z,17.20
2022-08-30T08:28:56.799Z,17.20
2022-08-30T08:29:58.408Z,17.10
2022-08-30T08:31:00.108Z,17.10
2022-08-30T08:32:01.852Z,17.20
2022-08-30T08:33:05.221Z,17.30
2022-08-30T08:34:06.938Z,17.30
2022-08-30T08:35:08.664Z,17.30
2022-08-30T08:36:10.293Z,17.40
2022-08-30T08:37:12.011Z,17.40
2022-08-30T08:38:13.782Z,17.30
2022-08-30T08:39:15.844Z,17.20
2022-08-30T08:40:19.358Z,17.20
2022-08-30T08:41:48.948Z,17.20
2022-08-30T08:43:00.561Z,17.30
2022-08-30T08:44:13.233Z,17.40
2022-08-30T08:45:28.765Z,17.50
2022-08-30T08:46:41.402Z,17.60
2022-08-30T08:48:09.520Z,17.80
2022-08-30T08:49:13.425Z,17.70
2022-08-30T08:50:20.435Z,17.70
2022-08-30T08:51:44.862Z,17.50
2022-08-30T08:53:45.394Z,17.50
2022-08-30T08:54:59.244Z,17.40
2022-08-30T08:56:05.073Z,17.50
2022-08-30T08:57:06.645Z,17.40
2022-08-30T08:58:16.912Z,17.40
2022-08-30T08:59:18.743Z,17.50
2022-08-30T09:00:21.769Z,17.60
2022-08-30T09:01:28.250Z,17.70
2022-08-30T09:02:39.397Z,17.60
2022-08-30T09:03:41.855Z,17.50
2022-08-30T09:04:43.836Z,17.40
2022-08-30T09:05:46.084Z,17.40
2022-08-30T09:07:00.818Z,17.40
2022-08-30T09:08:09.891Z,17.60
2022-08-30T09:09:12.398Z,17.50
2022-08-30T09:10:14.309Z,17.50
2022-08-30T09:11:26.409Z,17.40
2022-08-30T09:12:28.952Z,17.30
2022-08-30T09:13:30.812Z,17.10
2022-08-30T09:14:44.324Z,17.20
2022-08-30T09:15:53.696Z,17.50
2022-08-30T09:17:07.523Z,17.80
2022-08-30T09:18:19.374Z,18.00
2022-08-30T09:19:38.279Z,18.20
2022-08-30T09:20:45.708Z,18.40
2022-08-30T09:22:00.116Z,18.40
2022-08-30T09:23:27.292Z,18.40
2022-08-30T09:24:38.125Z,18.40
2022-08-30T09:26:00.081Z,18.60
2022-08-30T09:27:46.670Z,18.70
2022-08-30T09:28:50.334Z,19.00
2022-08-30T09:29:53.337Z,19.40
2022-08-30T09:31:18.186Z,19.60
2022-08-30T09:32:31.611Z,19.90
2022-08-30T09:33:34.558Z,20.20
2022-08-30T09:34:36.208Z,20.40
2022-08-30T09:35:37.767Z,20.50
2022-08-30T09:36:49.758Z,20.70
2022-08-30T09:38:17.900Z,20.90
2022-08-30T09:39:30.952Z,21.10
2022-08-30T09:40:54.210Z,21.40
2022-08-30T09:42:16.116Z,21.50
2022-08-30T09:43:17.638Z,21.80
2022-08-30T09:44:31.490Z,22.10
2022-08-30T09:45:38.708Z,22.00
2022-08-30T09:46:53.088Z,22.10
2022-08-30T09:47:54.642Z,22.10
2022-08-30T09:48:56.401Z,22.10
2022-08-30T09:50:21.021Z,22.20
2022-08-30T09:51:53.415Z,22.10
2022-08-30T09:53:13.166Z,22.20
2022-08-30T09:54:36.635Z,22.40
2022-08-30T09:55:56.680Z,22.40
2022-08-30T09:57:13.623Z,22.40
2022-08-30T09:58:33.901Z,22.80
2022-08-30T09:59:39.983Z,23.00
2022-08-30T10:01:12.407Z,23.20
2022-08-30T10:02:41.772Z,23.70
2022-08-30T10:04:07.206Z,24.00
2022-08-30T10:05:16.728Z,24.30
2022-08-30T10:06:42.143Z,24.10
2022-08-30T10:08:02.281Z,23.90
2022-08-30T10:09:27.046Z,23.90
2022-08-30T10:10:45.266Z,24.00
2022-08-30T10:12:18.057Z,23.70
2022-08-30T10:13:38.457Z,23.60
2022-08-30T10:14:58.995Z,23.70
2022-08-30T10:16:16.482Z,23.90
2022-08-30T10:17:39.077Z,23.80
2022-08-30T10:19:04.163Z,23.70
2022-08-30T10:21:21.406Z,23.10
2022-08-30T10:22:34.463Z,23.20
2022-08-30T10:23:41.179Z,23.20
2022-08-30T10:24:50.836Z,23.20
2022-08-30T10:25:59.998Z,23.30
2022-08-30T10:27:09.579Z,23.30
2022-08-30T10:28:40.800Z,23.30
2022-08-30T10:30:14.119Z,23.40
2022-08-30T10:31:24.801Z,23.60
2022-08-30T10:32:53.221Z,23.60
2022-08-30T10:34:02.455Z,23.40
2022-08-30T10:35:19.599Z,23.40
2022-08-30T10:36:33.836Z,23.20
2022-08-30T10:37:43.946Z,22.90
2022-08-30T10:38:53.778Z,22.90
2022-08-30T10:40:28.652Z,22.80
2022-08-30T10:41:42.444Z,22.80
2022-08-30T10:42:44.585Z,22.70
2022-08-30T10:44:20.358Z,22.90
2022-08-30T10:45:23.924Z,23.10
2022-08-30T10:46:51.454Z,23.20
2022-08-30T10:48:00.595Z,23.30
2022-08-30T10:49:05.737Z,23.50
2022-08-30T10:50:45.152Z,23.50
2022-08-30T10:51:53.357Z,23.60
2022-08-30T10:52:59.621Z,23.80
2022-08-30T10:54:32.383Z,23.90
2022-08-30T10:55:37.815Z,23.80
2022-08-30T10:56:55.189Z,23.90
2022-08-30T10:58:25.565Z,24.10
2022-08-30T10:59:59.858Z,24.10
2022-08-30T11:01:20.796Z,24.00
2022-08-30T11:03:08.286Z,23.80
2022-08-30T11:04:40.337Z,23.90
2022-08-30T11:06:10.653Z,23.90
2022-08-30T11:07:15.171Z,23.70
2022-08-30T11:08:37.817Z,23.10
2022-08-30T11:10:04.650Z,22.90
2022-08-30T11:11:24.614Z,23.00
2022-08-30T11:12:53.393Z,23.20
2022-08-30T11:13:57.523Z,23.40
2022-08-30T11:15:18.186Z,23.60
2022-08-30T11:16:48.358Z,23.60
2022-08-30T11:18:08.598Z,23.80
2022-08-30T11:19:36.034Z,23.90
2022-08-30T11:20:47.819Z,24.00
2022-08-30T11:21:51.715Z,24.10
2022-08-30T11:23:18.810Z,24.10
2022-08-30T11:24:24.920Z,24.30
2022-08-30T11:26:01.983Z,24.50
2022-08-30T11:27:05.421Z,24.60
2022-08-30T11:28:09.199Z,24.80
2022-08-30T11:29:32.734Z,24.70
2022-08-30T11:30:37.746Z,24.80
2022-08-30T11:31:41.862Z,24.70
2022-08-30T11:33:25.481Z,24.70
2022-08-30T11:34:48.435Z,24.70
2022-08-30T11:35:53.688Z,24.50
2022-08-30T11:36:55.517Z,24.70
2022-08-30T11:37:58.393Z,24.90
2022-08-30T11:39:06.887Z,25.00
2022-08-30T11:40:20.842Z,25.10
2022-08-30T11:41:47.920Z,25.30
2022-08-30T11:42:55.340Z,25.40
2022-08-30T11:44:21.770Z,25.30
2022-08-30T11:45:25.453Z,25.20
2022-08-30T11:46:31.902Z,25.40
2022-08-30T11:47:47.726Z,25.40
2022-08-30T11:49:16.797Z,25.30
2022-08-30T11:50:27.757Z,25.20
2022-08-30T11:52:23.579Z,25.20
2022-08-30T11:53:51.222Z,25.20
2022-08-30T11:55:14.163Z,25.30
2022-08-30T11:56:51.956Z,25.40
2022-08-30T11:58:11.632Z,25.20
2022-08-30T11:59:31.398Z,25.20
2022-08-30T12:00:40.849Z,25.00
2022-08-30T12:01:50.623Z,24.80
2022-08-30T12:03:05.170Z,24.70
2022-08-30T12:04:42.877Z,24.70
2022-08-30T12:05:48.068Z,24.90
2022-08-30T12:07:11.547Z,24.90
2022-08-30T12:08:28.577Z,25.10
2022-08-30T12:09:30.291Z,25.20
2022-08-30T12:10:41.976Z,25.30
2022-08-30T12:12:09.215Z,25.40
2022-08-30T12:13:37.191Z,25.40
2022-08-30T12:14:54.787Z,25.30
2022-08-30T12:16:00.402Z,25.40
2022-08-30T12:17:28.649Z,25.30
2022-08-30T12:18:38.291Z,25.30
2022-08-30T12:19:49.037Z,25.50
2022-08-30T12:20:54.247Z,25.60
2022-08-30T12:22:01.551Z,25.40
2022-08-30T12:23:17.781Z,25.30
2022-08-30T12:24:29.626Z,25.60
2022-08-30T12:25:33.641Z,25.50
2022-08-30T12:26:41.274Z,25.50
2022-08-30T12:27:42.976Z,25.70
2022-08-30T12:28:48.628Z,25.80
2022-08-30T12:29:56.408Z,25.80
2022-08-30T12:31:14.416Z,26.00
2022-08-30T12:32:19.229Z,25.80
2022-08-30T12:33:36.552Z,25.70
2022-08-30T12:34:42.286Z,25.90
2022-08-30T12:35:44.623Z,26.10
2022-08-30T12:36:52.648Z,26.20
2022-08-30T12:38:05.266Z,26.40
2022-08-30T12:39:14.328Z,26.50
2022-08-30T12:40:22.791Z,26.60
2022-08-30T12:41:24.665Z,26.70
2022-08-30T12:42:31.261Z,26.90
2022-08-30T12:43:40.562Z,26.20
2022-08-30T12:44:43.550Z,26.10
2022-08-30T12:45:50.986Z,25.90
2022-08-30T12:47:00.270Z,26.10
2022-08-30T12:48:06.079Z,26.40
2022-08-30T12:49:08.765Z,26.60
2022-08-30T12:50:19.112Z,26.80
2022-08-30T12:51:46.922Z,26.80
2022-08-30T12:52:59.486Z,26.60
2022-08-30T12:54:15.722Z,26.70
2022-08-30T12:55:22.593Z,26.70
2022-08-30T12:56:52.418Z,26.70
2022-08-30T12:58:04.400Z,26.50
2022-08-30T12:59:06.230Z,26.60
2022-08-30T13:00:34.171Z,26.60
2022-08-30T13:01:38.195Z,26.70
2022-08-30T13:02:59.195Z,27.00
2022-08-30T13:04:30.233Z,27.20
2022-08-30T13:05:50.052Z,26.90
2022-08-30T13:06:58.703Z,27.00
2022-08-30T13:08:28.623Z,27.20
2022-08-30T13:09:37.835Z,27.40
2022-08-30T13:11:07.986Z,27.40
2022-08-30T13:14:42.325Z,27.30
2022-08-30T13:15:50.394Z,27.50
2022-08-30T13:17:06.768Z,27.50
2022-08-30T13:21:27.883Z,27.60
2022-08-30T13:22:36.703Z,27.90
2022-08-30T13:23:47.773Z,28.20
2022-08-30T13:24:52.081Z,28.10
2022-08-30T13:25:54.132Z,28.00
2022-08-30T13:29:54.779Z,28.20
2022-08-30T13:30:58.391Z,28.30
2022-08-30T13:32:10.349Z,28.20
2022-08-30T13:33:12.664Z,28.00
2022-08-30T13:34:14.774Z,27.80
2022-08-30T13:35:17.136Z,27.50
2022-08-30T13:36:34.464Z,27.70
2022-08-30T13:37:49.622Z,27.80
2022-08-30T13:38:53.411Z,27.90
2022-08-30T13:39:55.571Z,28.00
2022-08-30T13:40:57.773Z,28.10
2022-08-30T13:43:22.415Z,28.20
2022-08-30T13:44:24.858Z,27.80
2022-08-30T13:46:35.409Z,27.90
2022-08-30T13:49:46.352Z,28.40
2022-08-30T13:50:48.578Z,27.70
2022-08-30T13:52:19.322Z,27.50
2022-08-30T13:54:58.944Z,27.90
2022-08-30T13:56:05.012Z,27.60
2022-08-30T13:57:07.468Z,27.70
2022-08-30T13:58:13.580Z,27.80
2022-08-30T14:01:06.902Z,28.10
2022-08-30T14:06:34.927Z,27.90
2022-08-30T14:07:40.214Z,28.00
2022-08-30T14:08:49.823Z,28.00
2022-08-30T14:10:30.520Z,27.70
2022-08-30T14:11:22.518Z,27.60
2022-08-30T14:15:15.067Z,27.50
2022-08-30T14:16:43.728Z,27.70
2022-08-30T14:17:45.909Z,27.20
2022-08-30T14:18:48.271Z,27.10
2022-08-30T14:19:54.101Z,27.40
2022-08-30T14:20:56.883Z,27.50
2022-08-30T14:21:58.939Z,27.70
2022-08-30T14:23:10.411Z,28.00
2022-08-30T14:24:15.746Z,28.30
2022-08-30T14:25:25.064Z,28.50
2022-08-30T14:26:40.132Z,28.70
2022-08-30T14:27:48.124Z,28.20
2022-08-30T14:29:17.317Z,27.40
2022-08-30T14:30:26.130Z,26.90
2022-08-30T14:33:29.646Z,27.30
2022-08-30T14:33:39.268Z,27.40
2022-08-30T14:34:46.025Z,27.50
2022-08-30T14:35:49.593Z,27.80
2022-08-30T14:36:57.296Z,28.00
2022-08-30T14:38:04.478Z,28.10
2022-08-30T14:39:11.424Z,28.30
2022-08-30T14:40:13.812Z,28.50
2022-08-30T14:41:18.527Z,28.80
2022-08-30T14:42:38.293Z,28.50
2022-08-30T14:43:43.443Z,28.70
2022-08-30T14:44:56.298Z,28.80
2022-08-30T14:46:09.314Z,28.60
2022-08-30T14:47:12.288Z,28.40
2022-08-30T14:48:18.965Z,28.10
2022-08-30T14:49:35.480Z,28.30
2022-08-30T14:50:53.308Z,28.60